Time;durP1;ratioP1;P1;durP2;ratioP2;P2;SDS_P1;SDS_P2;PMS_P1;PMS_P2;Temp;Humidity;BMP_temperature;BMP_pressure;BME280_temperature;BME280_humidity;BME280_pressure;Samples;Min_cycle;Max_cycle;Signal;HPM_P1;HPM_P2
2024/01/08 00:02:18;;;;;;;2.47;1.60;;;5.80;99.90;;;;;;5014418;28;20599;-43
2024/01/08 00:04:46;;;;;;;2.00;1.70;;;5.80;99.90;;;;;;5015267;28;20213;-43
2024/01/08 00:07:14;;;;;;;2.63;1.80;;;5.80;99.90;;;;;;5015789;28;20686;-43
2024/01/08 00:09:43;;;;;;;2.58;1.80;;;5.80;99.90;;;;;;5012611;28;20495;-43
2024/01/08 00:12:11;;;;;;;2.45;1.65;;;5.80;99.90;;;;;;5011158;28;20221;-43
2024/01/08 00:14:40;;;;;;;2.67;2.10;;;5.80;99.90;;;;;;5010391;28;20197;-43
2024/01/08 00:17:09;;;;;;;2.40;1.77;;;5.80;99.90;;;;;;5010196;28;20250;-43
2024/01/08 00:19:37;;;;;;;3.22;2.88;;;5.80;99.90;;;;;;5016907;28;20710;-43
2024/01/08 00:22:05;;;;;;;3.25;2.03;;;5.80;99.90;;;;;;5012909;28;20753;-43
2024/01/08 00:24:33;;;;;;;3.75;2.70;;;5.80;99.80;;;;;;5014139;28;20245;-43
2024/01/08 00:27:02;;;;;;;2.45;2.00;;;5.80;99.90;;;;;;5013911;28;20285;-43
2024/01/08 00:29:30;;;;;;;2.50;2.20;;;5.80;99.90;;;;;;5010681;28;20194;-44
2024/01/08 00:31:59;;;;;;;2.90;2.58;;;5.80;99.90;;;;;;5013459;28;20313;-44
2024/01/08 00:34:28;;;;;;;2.42;2.03;;;5.80;99.60;;;;;;5012795;28;20202;-44
2024/01/08 00:36:56;;;;;;;2.50;1.90;;;5.80;99.90;;;;;;5010244;28;20198;-45
2024/01/08 00:39:27;;;;;;;2.00;1.60;;;5.70;99.90;;;;;;5016314;28;20285;-44
2024/01/08 00:41:55;;;;;;;3.65;2.25;;;5.70;99.90;;;;;;5016407;28;20214;-43
2024/01/08 00:44:23;;;;;;;3.03;2.25;;;5.70;99.90;;;;;;5015142;28;20216;-45
2024/01/08 00:46:51;;;;;;;2.95;2.63;;;5.70;99.90;;;;;;5018259;28;20202;-47
2024/01/08 00:49:19;;;;;;;2.90;1.65;;;5.70;99.90;;;;;;5015483;28;20205;-46
2024/01/08 00:51:49;;;;;;;2.97;2.35;;;5.70;99.90;;;;;;5010854;28;20737;-45
2024/01/08 00:54:17;;;;;;;2.47;2.00;;;5.70;99.90;;;;;;5010210;28;20229;-47
2024/01/08 00:56:45;;;;;;;2.50;2.30;;;5.70;99.90;;;;;;5011025;28;20198;-45
2024/01/08 00:59:13;;;;;;;2.72;2.38;;;5.70;99.90;;;;;;5003710;28;20231;-46
2024/01/08 01:01:41;;;;;;;2.40;2.20;;;5.70;99.90;;;;;;5017682;28;20213;-45
2024/01/08 01:04:09;;;;;;;3.53;2.28;;;5.70;99.90;;;;;;5010955;28;20570;-45
2024/01/08 01:06:37;;;;;;;4.03;2.05;;;5.70;99.60;;;;;;5012578;28;20217;-43
2024/01/08 01:09:07;;;;;;;2.70;2.20;;;5.70;99.90;;;;;;5010983;28;20241;-44
2024/01/08 01:11:35;;;;;;;2.83;2.13;;;5.70;99.90;;;;;;5017645;28;20220;-44
2024/01/08 01:14:03;;;;;;;2.85;1.63;;;5.70;99.90;;;;;;5016548;28;20244;-45
2024/01/08 01:16:34;;;;;;;3.88;2.13;;;5.70;99.90;;;;;;5018489;28;20194;-47
2024/01/08 01:19:02;;;;;;;2.65;1.88;;;5.70;99.60;;;;;;5015051;28;20222;-44
2024/01/08 01:21:30;;;;;;;2.17;1.70;;;5.70;99.90;;;;;;5009825;28;20226;-44
2024/01/08 01:23:58;;;;;;;2.55;2.00;;;5.70;99.90;;;;;;5008134;28;20277;-46
2024/01/08 01:26:28;;;;;;;2.45;1.55;;;5.70;99.90;;;;;;5009696;28;20217;-47
2024/01/08 01:28:56;;;;;;;2.55;2.05;;;5.70;99.90;;;;;;5007676;28;20210;-44
2024/01/08 01:31:24;;;;;;;2.40;1.58;;;5.70;99.90;;;;;;5009621;28;20253;-44
2024/01/08 01:33:52;;;;;;;3.10;1.90;;;5.70;99.90;;;;;;5009070;28;20276;-45
2024/01/08 01:36:20;;;;;;;3.75;2.35;;;5.70;99.90;;;;;;5018696;28;20690;-46
2024/01/08 01:38:48;;;;;;;1.90;1.52;;;5.70;99.90;;;;;;5013324;28;20745;-48
2024/01/08 01:41:16;;;;;;;2.47;2.28;;;5.70;99.90;;;;;;5009781;28;20688;-47
2024/01/08 01:43:46;;;;;;;2.00;1.65;;;5.70;99.60;;;;;;5008382;28;20221;-46
2024/01/08 01:46:22;;;;;;;2.38;1.90;;;5.70;99.90;;;;;;5012328;28;20221;-44
2024/01/08 01:48:51;;;;;;;3.25;2.40;;;5.70;99.90;;;;;;5012904;28;20236;-46
2024/01/08 01:51:19;;;;;;;1.90;1.40;;;5.70;99.90;;;;;;5012710;28;20627;-46
2024/01/08 01:53:48;;;;;;;2.45;1.65;;;5.70;99.90;;;;;;5009334;28;20232;-46
2024/01/08 01:56:16;;;;;;;2.60;1.75;;;5.60;99.90;;;;;;5019356;28;20189;-46
2024/01/08 01:58:46;;;;;;;2.00;1.55;;;5.70;99.90;;;;;;5017050;28;20222;-44
2024/01/08 02:01:14;;;;;;;2.42;1.50;;;5.70;99.90;;;;;;5022016;28;20267;-44
2024/01/08 02:03:43;;;;;;;2.92;1.88;;;5.70;99.90;;;;;;5014508;28;20225;-44
2024/01/08 02:06:13;;;;;;;2.45;2.10;;;5.70;99.90;;;;;;5013765;28;20202;-47
2024/01/08 02:08:42;;;;;;;1.95;1.55;;;5.70;99.90;;;;;;5014089;28;20254;-46
2024/01/08 02:11:10;;;;;;;2.85;2.10;;;5.70;99.90;;;;;;5017660;28;20559;-45
2024/01/08 02:13:38;;;;;;;2.80;2.30;;;5.70;99.90;;;;;;5001946;28;20226;-45
2024/01/08 02:16:08;;;;;;;2.40;1.48;;;5.70;99.90;;;;;;5015818;28;20190;-45
2024/01/08 02:18:36;;;;;;;3.13;2.50;;;5.70;99.90;;;;;;5018963;28;20527;-45
2024/01/08 02:21:05;;;;;;;1.67;1.40;;;5.60;99.90;;;;;;5017005;28;20233;-49
2024/01/08 02:23:34;;;;;;;3.13;2.00;;;5.70;99.90;;;;;;5017717;28;20434;-45
2024/01/08 02:26:03;;;;;;;2.33;1.73;;;5.60;99.90;;;;;;5016191;28;20210;-42
2024/01/08 02:28:31;;;;;;;3.33;2.15;;;5.60;99.90;;;;;;5015955;28;20226;-43
2024/01/08 02:30:59;;;;;;;1.77;1.55;;;5.70;99.90;;;;;;5015525;28;20229;-44
2024/01/08 02:33:28;;;;;;;2.25;1.48;;;5.60;99.90;;;;;;5013787;28;20253;-43
2024/01/08 02:35:57;;;;;;;2.60;1.90;;;5.60;99.90;;;;;;5015497;28;20190;-42
2024/01/08 02:38:25;;;;;;;2.17;1.85;;;5.60;99.90;;;;;;5017260;28;20225;-45
2024/01/08 02:40:57;;;;;;;2.45;1.63;;;5.60;99.90;;;;;;5011047;28;20233;-45
2024/01/08 02:43:25;;;;;;;2.13;1.45;;;5.60;99.90;;;;;;5018137;28;20244;-46
2024/01/08 02:45:54;;;;;;;2.80;1.73;;;5.60;99.90;;;;;;5014507;28;20214;-46
2024/01/08 02:48:22;;;;;;;3.35;2.40;;;5.60;99.90;;;;;;5011815;28;20217;-47
2024/01/08 02:50:50;;;;;;;2.63;2.08;;;5.60;99.80;;;;;;5012660;28;20209;-45
2024/01/08 02:53:18;;;;;;;2.70;2.10;;;5.60;99.90;;;;;;5021377;28;20223;-45
2024/01/08 02:55:47;;;;;;;2.67;1.83;;;5.60;99.90;;;;;;5014235;28;20565;-46
2024/01/08 02:58:16;;;;;;;2.38;1.67;;;5.60;99.70;;;;;;5011933;28;20218;-46
2024/01/08 03:00:45;;;;;;;2.75;2.35;;;5.60;99.90;;;;;;5016642;28;20209;-45
2024/01/08 03:03:13;;;;;;;2.28;1.88;;;5.50;99.80;;;;;;5011141;28;20735;-45
2024/01/08 03:05:41;;;;;;;2.60;1.50;;;5.60;99.90;;;;;;5012670;28;20739;-44
2024/01/08 03:08:09;;;;;;;4.57;2.60;;;5.60;99.90;;;;;;5010554;28;20218;-45
2024/01/08 03:10:37;;;;;;;2.95;2.20;;;5.60;99.70;;;;;;5015721;28;20216;-44
2024/01/08 03:13:06;;;;;;;2.65;1.60;;;5.50;99.90;;;;;;5010977;28;20206;-46
2024/01/08 03:15:35;;;;;;;2.85;2.20;;;5.60;99.90;;;;;;5013582;28;20213;-45
2024/01/08 03:18:04;;;;;;;1.98;1.60;;;5.60;99.90;;;;;;5012912;28;20225;-45
2024/01/08 03:20:32;;;;;;;2.72;2.15;;;5.60;99.90;;;;;;5013373;28;20630;-48
2024/01/08 03:23:01;;;;;;;2.70;1.70;;;5.60;99.90;;;;;;5009736;28;20217;-46
2024/01/08 03:25:29;;;;;;;2.45;1.65;;;5.50;99.90;;;;;;5010155;28;20623;-44
2024/01/08 03:27:57;;;;;;;2.20;1.60;;;5.60;99.90;;;;;;5010058;28;20226;-46
2024/01/08 03:30:25;;;;;;;3.00;1.67;;;5.50;99.90;;;;;;5013120;28;20221;-46
2024/01/08 03:32:55;;;;;;;3.00;2.20;;;5.60;99.90;;;;;;4973026;28;1077931;-45
2024/01/08 03:35:24;;;;;;;2.70;1.85;;;5.50;99.90;;;;;;5013527;28;20619;-44
2024/01/08 03:37:52;;;;;;;2.10;1.80;;;5.50;99.90;;;;;;5012109;28;20299;-45
2024/01/08 03:40:21;;;;;;;2.45;1.60;;;5.50;99.90;;;;;;5019817;28;20214;-46
2024/01/08 03:42:49;;;;;;;3.58;2.17;;;5.50;99.90;;;;;;5011305;28;20711;-45
2024/01/08 03:45:17;;;;;;;3.38;1.90;;;5.50;99.90;;;;;;5011201;28;20198;-47
2024/01/08 03:47:46;;;;;;;2.00;1.75;;;5.50;99.90;;;;;;5019158;28;20229;-44
2024/01/08 03:50:15;;;;;;;2.20;1.60;;;5.50;99.60;;;;;;5012276;28;20308;-45
2024/01/08 03:52:44;;;;;;;2.47;1.92;;;5.50;99.90;;;;;;5020144;28;20273;-45
2024/01/08 03:55:12;;;;;;;1.80;1.33;;;5.50;99.90;;;;;;5012609;28;20271;-45
2024/01/08 03:57:40;;;;;;;2.20;1.60;;;5.50;99.90;;;;;;5013410;28;20222;-44
2024/01/08 04:00:09;;;;;;;2.42;1.80;;;5.50;99.90;;;;;;5016917;28;20735;-45
2024/01/08 04:02:41;;;;;;;2.90;1.95;;;5.50;99.90;;;;;;5014619;28;20220;-46
2024/01/08 04:05:09;;;;;;;2.33;1.55;;;5.50;99.90;;;;;;5029119;28;20194;-46
2024/01/08 04:07:39;;;;;;;2.90;2.10;;;5.50;99.90;;;;;;5016286;28;20222;-46
2024/01/08 04:10:08;;;;;;;2.25;1.73;;;5.50;99.90;;;;;;5013525;28;20214;-46
2024/01/08 04:12:36;;;;;;;2.15;1.73;;;5.40;99.90;;;;;;5019323;28;20217;-46
2024/01/08 04:15:05;;;;;;;2.75;1.80;;;5.40;99.90;;;;;;5015528;28;20213;-46
2024/01/08 04:17:34;;;;;;;3.75;2.38;;;5.50;99.90;;;;;;5020936;28;20228;-46
2024/01/08 04:20:03;;;;;;;3.15;1.90;;;5.50;99.90;;;;;;5010128;28;20218;-46
2024/01/08 04:22:31;;;;;;;3.22;2.15;;;5.50;99.90;;;;;;5016191;28;20756;-47
2024/01/08 04:25:01;;;;;;;2.30;1.80;;;5.40;99.90;;;;;;5010214;28;20198;-47
2024/01/08 04:27:29;;;;;;;2.63;1.90;;;5.50;99.90;;;;;;5010037;28;20631;-46
2024/01/08 04:29:57;;;;;;;3.15;2.85;;;5.40;99.90;;;;;;5011420;28;20194;-46
2024/01/08 04:32:25;;;;;;;3.38;2.22;;;5.50;99.90;;;;;;5009798;28;20225;-47
2024/01/08 04:34:53;;;;;;;2.72;2.05;;;5.40;99.90;;;;;;5018294;28;20205;-47
2024/01/08 04:37:21;;;;;;;3.00;2.40;;;5.40;99.90;;;;;;5006781;28;20317;-47
2024/01/08 04:39:50;;;;;;;2.55;1.92;;;5.40;99.90;;;;;;5011316;28;20224;-48
2024/01/08 04:42:19;;;;;;;2.90;2.25;;;5.40;99.90;;;;;;5011387;28;20236;-45
2024/01/08 04:44:47;;;;;;;3.40;2.67;;;5.40;99.90;;;;;;5010744;28;20204;-45
2024/01/08 04:47:15;;;;;;;4.60;2.88;;;5.40;99.90;;;;;;5014566;28;20237;-47
2024/01/08 04:49:45;;;;;;;3.40;3.10;;;5.40;99.90;;;;;;5022088;28;20292;-45
2024/01/08 04:52:13;;;;;;;3.35;2.28;;;5.40;99.80;;;;;;5011434;28;20660;-45
2024/01/08 04:54:42;;;;;;;3.33;2.30;;;5.40;99.90;;;;;;5012451;28;20213;-44
2024/01/08 04:57:13;;;;;;;2.33;1.95;;;5.40;99.90;;;;;;5009844;28;20190;-45
2024/01/08 04:59:43;;;;;;;2.47;1.90;;;5.40;99.90;;;;;;5015001;28;20205;-44
2024/01/08 05:02:12;;;;;;;4.32;2.08;;;5.40;99.90;;;;;;5015078;28;20601;-44
2024/01/08 05:04:40;;;;;;;3.90;2.15;;;5.40;99.90;;;;;;5017905;28;20201;-47
2024/01/08 05:07:08;;;;;;;2.78;2.30;;;5.40;99.90;;;;;;5016293;28;20210;-46
2024/01/08 05:09:37;;;;;;;3.85;3.45;;;5.40;99.90;;;;;;5012698;28;20225;-47
2024/01/08 05:12:06;;;;;;;2.30;1.92;;;5.40;99.90;;;;;;5014927;28;20224;-45
2024/01/08 05:14:34;;;;;;;3.38;2.88;;;5.40;99.90;;;;;;5010374;28;20201;-46
2024/01/08 05:17:04;;;;;;;3.90;3.20;;;5.40;99.90;;;;;;5017589;28;20194;-47
2024/01/08 05:19:32;;;;;;;2.78;2.15;;;5.40;99.90;;;;;;5005036;28;20202;-46
2024/01/08 05:22:01;;;;;;;2.35;1.98;;;5.40;99.90;;;;;;5010457;28;20650;-45
2024/01/08 05:24:29;;;;;;;3.63;2.20;;;5.40;99.90;;;;;;5016622;28;20209;-45
2024/01/08 05:26:57;;;;;;;2.67;1.75;;;5.40;99.90;;;;;;5010957;28;20237;-46
2024/01/08 05:29:25;;;;;;;1.95;1.65;;;5.40;99.90;;;;;;5009572;28;20194;-44
2024/01/08 05:31:53;;;;;;;3.60;2.80;;;5.40;99.90;;;;;;5010059;28;20233;-45
2024/01/08 05:34:23;;;;;;;3.05;1.70;;;5.40;99.90;;;;;;5010919;28;20225;-44
2024/01/08 05:36:51;;;;;;;3.70;2.65;;;5.40;99.90;;;;;;5012110;28;20193;-44
2024/01/08 05:39:19;;;;;;;2.45;1.70;;;5.40;99.90;;;;;;5015690;28;20221;-44
2024/01/08 05:41:47;;;;;;;4.28;2.72;;;5.40;99.90;;;;;;5012564;28;20217;-46
2024/01/08 05:44:15;;;;;;;3.28;2.90;;;5.40;99.90;;;;;;5012039;28;20304;-45
2024/01/08 05:46:44;;;;;;;3.10;2.28;;;5.40;99.90;;;;;;5015217;28;20193;-45
2024/01/08 05:49:13;;;;;;;3.53;2.40;;;5.40;99.90;;;;;;5008651;28;20206;-45
2024/01/08 05:51:43;;;;;;;3.63;2.47;;;5.30;99.90;;;;;;5009350;28;20726;-44
2024/01/08 05:54:11;;;;;;;3.00;2.22;;;5.40;99.90;;;;;;5014564;28;20308;-45
2024/01/08 05:56:39;;;;;;;2.83;2.25;;;5.40;99.90;;;;;;5014152;28;20201;-44
2024/01/08 05:59:07;;;;;;;3.45;2.13;;;5.40;99.90;;;;;;5012311;28;20676;-44
2024/01/08 06:01:36;;;;;;;3.22;2.30;;;5.40;99.90;;;;;;5014219;28;20210;-43
2024/01/08 06:04:04;;;;;;;3.28;2.85;;;5.40;99.90;;;;;;5010889;28;20272;-43
2024/01/08 06:06:33;;;;;;;3.38;2.55;;;5.40;99.90;;;;;;5015300;28;20198;-42
2024/01/08 06:09:02;;;;;;;2.95;2.50;;;5.40;99.90;;;;;;5012092;28;20248;-43
2024/01/08 06:11:30;;;;;;;4.13;2.90;;;5.40;99.90;;;;;;5014372;28;20218;-43
2024/01/08 06:13:58;;;;;;;4.53;2.55;;;5.30;99.90;;;;;;5008448;28;20221;-43
2024/01/08 06:16:30;;;;;;;3.30;2.35;;;5.30;99.90;;;;;;5013615;28;20201;-43
2024/01/08 06:18:59;;;;;;;4.10;2.85;;;5.30;99.90;;;;;;5011780;28;20696;-44
2024/01/08 06:21:27;;;;;;;2.15;1.95;;;5.30;99.90;;;;;;5009213;28;20301;-43
2024/01/08 06:23:55;;;;;;;4.65;2.50;;;5.30;99.90;;;;;;5009033;28;20305;-43
2024/01/08 06:26:26;;;;;;;3.38;2.80;;;5.30;99.90;;;;;;5015575;28;20198;-43
2024/01/08 06:28:55;;;;;;;4.32;2.80;;;5.30;99.90;;;;;;5013346;28;20420;-43
2024/01/08 06:31:23;;;;;;;3.33;2.80;;;5.30;99.90;;;;;;5015918;28;20313;-43
2024/01/08 06:33:52;;;;;;;3.53;2.05;;;5.30;99.90;;;;;;5015705;28;20225;-43
2024/01/08 06:36:20;;;;;;;2.80;2.10;;;5.30;99.90;;;;;;5016218;28;20190;-43
2024/01/08 06:38:49;;;;;;;3.47;2.45;;;5.40;99.90;;;;;;5015985;28;20228;-43
2024/01/08 06:41:17;;;;;;;3.65;2.53;;;5.30;99.90;;;;;;5020012;28;20208;-44
2024/01/08 06:43:47;;;;;;;2.33;2.10;;;5.30;99.90;;;;;;5016657;28;20217;-44
2024/01/08 06:46:15;;;;;;;3.35;3.05;;;5.30;99.90;;;;;;5019635;28;20209;-43
2024/01/08 06:48:47;;;;;;;2.60;1.92;;;5.30;99.90;;;;;;5014925;28;20549;-44
2024/01/08 06:51:15;;;;;;;3.20;2.53;;;5.30;99.90;;;;;;5001450;28;20214;-43
2024/01/08 06:53:43;;;;;;;2.80;2.50;;;5.30;99.90;;;;;;5018401;28;20229;-43
2024/01/08 06:56:11;;;;;;;2.83;2.22;;;5.30;99.90;;;;;;5023637;28;20492;-43
2024/01/08 06:58:39;;;;;;;3.13;2.60;;;5.30;99.90;;;;;;5014606;28;20301;-43
2024/01/08 07:01:09;;;;;;;3.55;2.67;;;5.30;99.90;;;;;;5023221;28;20221;-43
2024/01/08 07:03:37;;;;;;;4.07;2.85;;;5.30;99.90;;;;;;5019850;28;20287;-43
2024/01/08 07:06:06;;;;;;;4.00;2.42;;;5.30;99.90;;;;;;5016561;28;20201;-43
2024/01/08 07:08:34;;;;;;;3.90;2.50;;;5.30;99.90;;;;;;5016722;28;20312;-44
2024/01/08 07:11:02;;;;;;;2.63;1.92;;;5.30;99.90;;;;;;5010732;28;20300;-43
2024/01/08 07:13:31;;;;;;;4.00;2.50;;;5.30;99.90;;;;;;5012317;28;20237;-43
2024/01/08 07:15:59;;;;;;;3.80;2.65;;;5.30;99.90;;;;;;5014047;28;20212;-43
2024/01/08 07:18:29;;;;;;;2.90;2.10;;;5.30;99.90;;;;;;5017734;28;20220;-43
2024/01/08 07:20:58;;;;;;;4.65;2.70;;;5.30;99.90;;;;;;5014274;28;20217;-43
2024/01/08 07:23:26;;;;;;;3.38;2.28;;;5.30;99.90;;;;;;5011619;28;20218;-45
2024/01/08 07:25:54;;;;;;;3.40;2.70;;;5.30;99.90;;;;;;5009811;28;20201;-43
2024/01/08 07:28:23;;;;;;;3.90;2.55;;;5.30;99.90;;;;;;5015963;28;20226;-43
2024/01/08 07:30:51;;;;;;;3.17;2.05;;;5.30;99.90;;;;;;5014145;28;20226;-43
2024/01/08 07:33:19;;;;;;;3.08;2.00;;;5.30;99.90;;;;;;5017530;28;20222;-44
2024/01/08 07:35:48;;;;;;;3.28;2.03;;;5.30;99.90;;;;;;5015702;28;20281;-43
2024/01/08 07:38:18;;;;;;;3.80;3.38;;;5.30;99.90;;;;;;5014053;28;20214;-44
2024/01/08 07:40:46;;;;;;;4.85;3.80;;;5.30;99.90;;;;;;5013221;28;20222;-44
2024/01/08 07:43:14;;;;;;;4.75;3.10;;;5.30;99.90;;;;;;5012006;28;20305;-44
2024/01/08 07:45:42;;;;;;;3.33;2.20;;;5.30;99.90;;;;;;5013181;28;20289;-43
2024/01/08 07:48:10;;;;;;;3.10;2.00;;;5.20;99.90;;;;;;5014525;28;20222;-48
2024/01/08 07:50:39;;;;;;;2.63;2.15;;;5.20;99.90;;;;;;5014625;28;20224;-43
2024/01/08 07:53:08;;;;;;;4.00;2.50;;;5.20;99.90;;;;;;5014560;28;20233;-44
2024/01/08 07:55:36;;;;;;;3.20;2.13;;;5.20;99.90;;;;;;5000023;28;20202;-44
2024/01/08 07:58:05;;;;;;;3.53;2.50;;;5.20;99.90;;;;;;5014797;28;20309;-44
2024/01/08 08:00:33;;;;;;;3.78;3.40;;;5.20;99.90;;;;;;5014876;28;20561;-44
2024/01/08 08:03:01;;;;;;;5.63;3.33;;;5.10;99.90;;;;;;5013995;28;20706;-45
2024/01/08 08:05:29;;;;;;;3.05;2.40;;;5.10;99.90;;;;;;5015269;28;20568;-44
2024/01/08 08:07:59;;;;;;;4.25;2.85;;;5.10;99.90;;;;;;5013952;28;20232;-43
2024/01/08 08:10:28;;;;;;;3.97;3.28;;;5.10;99.90;;;;;;5013584;28;20719;-44
2024/01/08 08:12:56;;;;;;;4.70;3.33;;;5.10;99.90;;;;;;5014836;28;20225;-43
2024/01/08 08:15:25;;;;;;;3.85;2.63;;;5.10;99.90;;;;;;5019680;28;20263;-43
2024/01/08 08:17:54;;;;;;;3.90;2.80;;;5.10;99.90;;;;;;5013523;28;20236;-43
2024/01/08 08:20:25;;;;;;;3.97;2.53;;;5.10;99.90;;;;;;5013603;28;20217;-43
2024/01/08 08:22:53;;;;;;;3.75;2.50;;;5.10;99.90;;;;;;5022028;28;20228;-43
2024/01/08 08:25:22;;;;;;;3.63;3.00;;;5.10;99.90;;;;;;5017034;28;20695;-45
2024/01/08 08:27:52;;;;;;;3.58;2.50;;;5.10;99.90;;;;;;5003368;28;20225;-45
2024/01/08 08:30:22;;;;;;;3.97;3.10;;;5.10;99.90;;;;;;5011317;28;20218;-45
2024/01/08 08:32:50;;;;;;;4.07;2.80;;;5.10;99.90;;;;;;5011710;28;20287;-44
2024/01/08 08:35:19;;;;;;;3.20;2.40;;;5.10;99.90;;;;;;5016947;28;20221;-45
2024/01/08 08:37:47;;;;;;;2.45;2.08;;;5.10;99.90;;;;;;5015394;28;20237;-45
2024/01/08 08:40:21;;;;;;;2.63;2.30;;;5.10;99.90;;;;;;5016230;28;20680;-47
2024/01/08 08:42:52;;;;;;;3.42;3.10;;;5.10;99.90;;;;;;5013940;28;20268;-45
2024/01/08 08:45:21;;;;;;;5.50;3.28;;;5.10;99.90;;;;;;5009393;28;20206;-46
2024/01/08 08:47:49;;;;;;;3.60;2.75;;;5.10;99.60;;;;;;5016273;28;20210;-47
2024/01/08 08:50:19;;;;;;;2.72;2.25;;;5.10;99.90;;;;;;5011352;28;20222;-47
2024/01/08 08:52:47;;;;;;;3.00;2.22;;;5.10;99.80;;;;;;5018715;28;20232;-47
2024/01/08 08:55:15;;;;;;;3.40;2.83;;;5.10;99.90;;;;;;5016860;28;20197;-44
2024/01/08 08:57:44;;;;;;;2.92;2.25;;;5.10;99.90;;;;;;5007329;28;20762;-46
2024/01/08 09:00:14;;;;;;;3.47;2.50;;;5.10;99.90;;;;;;5010276;28;20310;-46
2024/01/08 09:02:49;;;;;;;3.40;2.58;;;5.10;99.80;;;;;;5014376;28;20229;-44
2024/01/08 09:05:18;;;;;;;3.35;2.10;;;5.10;99.90;;;;;;5013726;28;20205;-46
2024/01/08 09:08:00;;;;;;;3.35;2.20;;;5.10;99.90;;;;;;5017018;28;20215;-44
2024/01/08 09:10:28;;;;;;;4.95;4.43;;;5.10;99.90;;;;;;5008993;28;20667;-47
2024/01/08 09:12:56;;;;;;;2.63;1.90;;;5.10;99.90;;;;;;5014396;28;20221;-46
2024/01/08 09:15:26;;;;;;;4.32;2.03;;;5.10;99.90;;;;;;5012715;28;20221;-46
2024/01/08 09:17:54;;;;;;;2.70;2.05;;;5.10;99.90;;;;;;5012601;28;20734;-46
2024/01/08 09:20:22;;;;;;;2.70;2.08;;;5.10;99.90;;;;;;5010767;28;20241;-45
2024/01/08 09:22:51;;;;;;;3.30;2.47;;;5.10;99.90;;;;;;5019558;28;20221;-46
2024/01/08 09:25:19;;;;;;;3.10;2.35;;;5.00;99.90;;;;;;5013000;28;20198;-44
2024/01/08 09:27:47;;;;;;;3.83;3.17;;;5.10;99.90;;;;;;5014171;28;20225;-45
2024/01/08 09:30:15;;;;;;;3.25;1.98;;;5.10;99.90;;;;;;5014981;28;20229;-46
2024/01/08 09:32:48;;;;;;;2.55;2.03;;;5.10;99.90;;;;;;5013905;28;20438;-46
2024/01/08 09:35:17;;;;;;;3.75;2.53;;;5.10;99.90;;;;;;5019452;28;20214;-43
2024/01/08 09:37:46;;;;;;;2.80;2.22;;;5.10;99.90;;;;;;5014801;28;20222;-47
2024/01/08 09:40:15;;;;;;;2.50;2.05;;;5.10;99.90;;;;;;5012946;28;20297;-45
2024/01/08 09:42:43;;;;;;;3.13;2.78;;;5.10;99.90;;;;;;5016807;28;20229;-47
2024/01/08 09:45:13;;;;;;;3.70;2.55;;;5.10;99.90;;;;;;5010185;28;20615;-44
2024/01/08 09:47:42;;;;;;;3.25;2.60;;;5.10;99.90;;;;;;5013344;28;20232;-45
2024/01/08 09:50:14;;;;;;;3.00;2.15;;;5.10;99.90;;;;;;5014488;28;20221;-49
2024/01/08 09:52:43;;;;;;;2.60;2.25;;;5.10;99.90;;;;;;5011461;28;20237;-46
2024/01/08 09:55:12;;;;;;;3.58;2.53;;;5.00;99.90;;;;;;5010431;28;20196;-43
2024/01/08 09:57:41;;;;;;;3.55;2.40;;;5.00;99.90;;;;;;5014210;28;20229;-44
2024/01/08 10:00:11;;;;;;;3.38;2.97;;;5.00;99.90;;;;;;4995882;28;20213;-45
2024/01/08 10:02:41;;;;;;;2.50;1.83;;;5.00;99.40;;;;;;5015714;28;20222;-44
2024/01/08 10:05:11;;;;;;;3.05;2.13;;;5.00;99.90;;;;;;5012084;28;20577;-44
2024/01/08 10:07:40;;;;;;;3.20;2.17;;;5.00;99.90;;;;;;5011233;28;20218;-45
2024/01/08 10:10:09;;;;;;;3.30;2.33;;;5.00;99.90;;;;;;5013034;28;20276;-46
2024/01/08 10:12:37;;;;;;;2.40;1.63;;;5.00;99.90;;;;;;5018939;28;20240;-45
2024/01/08 10:15:08;;;;;;;2.33;1.85;;;5.00;99.90;;;;;;5020267;28;20209;-45
2024/01/08 10:17:36;;;;;;;2.97;2.13;;;5.00;99.90;;;;;;5020696;28;20221;-45
2024/01/08 10:20:09;;;;;;;3.60;2.90;;;5.00;99.90;;;;;;5015782;28;20206;-45
2024/01/08 10:22:40;;;;;;;3.28;1.98;;;5.00;99.90;;;;;;5017723;28;20304;-44
2024/01/08 10:25:09;;;;;;;2.70;2.13;;;5.00;99.90;;;;;;5019065;28;20217;-45
2024/01/08 10:27:37;;;;;;;2.60;2.20;;;5.00;99.90;;;;;;5008126;28;20635;-47
2024/01/08 10:30:07;;;;;;;3.17;2.30;;;5.00;99.90;;;;;;5013709;28;20210;-45
2024/01/08 10:32:37;;;;;;;3.00;2.50;;;5.00;99.90;;;;;;5021056;28;20221;-44
2024/01/08 10:35:07;;;;;;;2.00;1.80;;;5.00;99.90;;;;;;5022636;28;20193;-46
2024/01/08 10:37:36;;;;;;;2.13;1.77;;;5.00;99.90;;;;;;5016840;28;20222;-44
2024/01/08 10:40:08;;;;;;;3.17;2.35;;;5.00;99.90;;;;;;5025767;28;20221;-46
2024/01/08 10:42:38;;;;;;;3.78;2.20;;;5.00;99.50;;;;;;5009446;28;20573;-44
2024/01/08 10:45:08;;;;;;;3.05;2.38;;;5.00;99.90;;;;;;5018726;28;20209;-44
2024/01/08 10:47:38;;;;;;;2.92;2.28;;;5.00;99.90;;;;;;5019986;28;20232;-46
2024/01/08 10:50:07;;;;;;;2.38;2.10;;;5.00;99.70;;;;;;5015530;28;20253;-48
2024/01/08 10:52:45;;;;;;;3.25;2.60;;;5.00;99.90;;;;;;5011917;28;20653;-43
2024/01/08 10:55:18;;;;;;;3.10;1.77;;;5.00;99.90;;;;;;5010277;28;20205;-45
2024/01/08 10:57:54;;;;;;;3.03;2.67;;;5.00;99.90;;;;;;5020916;28;20222;-44
2024/01/08 11:00:24;;;;;;;2.40;1.85;;;5.00;99.90;;;;;;5017777;28;20300;-46
2024/01/08 11:02:55;;;;;;;2.45;1.98;;;5.00;99.90;;;;;;5020807;28;20234;-44
2024/01/08 11:05:28;;;;;;;2.47;1.90;;;5.00;99.90;;;;;;5021692;28;20202;-44
2024/01/08 11:07:57;;;;;;;3.05;2.03;;;5.00;99.90;;;;;;5015504;28;20225;-43
2024/01/08 11:10:29;;;;;;;2.88;2.60;;;4.90;99.90;;;;;;5021127;28;20592;-43
2024/01/08 11:13:00;;;;;;;3.38;2.20;;;5.00;99.90;;;;;;5015626;28;20229;-44
2024/01/08 11:15:29;;;;;;;3.05;2.30;;;5.00;99.90;;;;;;5016198;28;20269;-45
2024/01/08 11:17:58;;;;;;;3.28;2.40;;;5.00;99.90;;;;;;5017951;28;20232;-41
2024/01/08 11:20:44;;;;;;;4.07;3.20;;;5.00;99.90;;;;;;5015568;28;20439;-45
2024/01/08 11:23:33;;;;;;;4.20;2.90;;;5.00;99.90;;;;;;5015170;28;20564;-44
2024/01/08 11:26:05;;;;;;;4.88;3.10;;;5.00;99.90;;;;;;5018653;28;20221;-43
2024/01/08 11:28:36;;;;;;;3.75;2.60;;;4.90;98.80;;;;;;5011811;28;20222;-44
2024/01/08 11:31:48;;;;;;;3.90;2.85;;;4.90;99.60;;;;;;5020801;28;20316;-43
2024/01/08 11:34:57;;;;;;;3.35;2.50;;;4.90;99.50;;;;;;5019389;28;20606;-43
2024/01/08 11:37:36;;;;;;;3.75;2.50;;;4.90;99.60;;;;;;5006500;28;20231;-43
2024/01/08 11:40:16;;;;;;;4.80;2.67;;;4.90;99.60;;;;;;5018333;28;20272;-48
2024/01/08 11:42:47;;;;;;;3.35;2.75;;;4.90;99.60;;;;;;5016984;28;20317;-45
2024/01/08 11:45:16;;;;;;;3.72;2.35;;;4.90;99.90;;;;;;5013262;28;20699;-48
2024/01/08 11:47:45;;;;;;;5.90;2.67;;;5.00;99.90;;;;;;5013605;28;20506;-45
2024/01/08 11:50:14;;;;;;;2.78;2.38;;;4.90;99.70;;;;;;5020653;28;20707;-44
2024/01/08 11:52:43;;;;;;;3.42;2.38;;;4.90;99.80;;;;;;5014874;28;20311;-47
2024/01/08 11:55:11;;;;;;;2.40;1.98;;;4.90;99.10;;;;;;5014745;28;20190;-46
2024/01/08 11:57:40;;;;;;;2.53;2.10;;;4.90;99.20;;;;;;5015786;28;20276;-45
2024/01/08 12:00:15;;;;;;;2.20;1.95;;;4.90;99.60;;;;;;5010760;28;20218;-47
2024/01/08 12:02:43;;;;;;;3.25;2.40;;;4.90;99.90;;;;;;5009342;28;20231;-47
2024/01/08 12:05:12;;;;;;;3.05;1.95;;;4.90;99.50;;;;;;5018708;28;20201;-45
2024/01/08 12:07:41;;;;;;;3.78;2.35;;;4.90;99.60;;;;;;5015990;28;20206;-43
2024/01/08 12:10:12;;;;;;;3.30;2.30;;;4.90;99.50;;;;;;5014744;28;20218;-46
2024/01/08 12:12:41;;;;;;;1.90;1.65;;;4.90;99.60;;;;;;5015933;28;20229;-44
2024/01/08 12:15:09;;;;;;;2.60;2.17;;;4.90;99.80;;;;;;5011964;28;20202;-45
2024/01/08 12:17:39;;;;;;;3.15;2.00;;;4.90;99.60;;;;;;5015103;28;20226;-43
2024/01/08 12:20:09;;;;;;;2.28;1.67;;;4.90;99.00;;;;;;5015453;28;20216;-45
2024/01/08 12:22:38;;;;;;;3.70;2.28;;;4.90;99.60;;;;;;5019069;28;20224;-45
2024/01/08 12:25:10;;;;;;;3.35;2.00;;;4.90;99.40;;;;;;5018992;28;20561;-45
2024/01/08 12:27:40;;;;;;;2.42;1.92;;;4.90;99.90;;;;;;5016305;28;20329;-46
2024/01/08 12:30:11;;;;;;;3.03;2.08;;;4.90;99.90;;;;;;5016014;28;20695;-45
2024/01/08 12:32:41;;;;;;;3.28;1.90;;;4.90;99.90;;;;;;5015840;28;20718;-44
2024/01/08 12:35:11;;;;;;;5.13;2.78;;;4.90;99.90;;;;;;5016813;28;20320;-45
2024/01/08 12:37:43;;;;;;;2.63;1.85;;;4.90;99.90;;;;;;5017573;28;20694;-45
2024/01/08 12:40:14;;;;;;;2.30;1.85;;;4.90;99.90;;;;;;5014803;28;20218;-46
2024/01/08 12:42:43;;;;;;;2.58;1.90;;;4.90;99.90;;;;;;5015968;28;20221;-46
2024/01/08 12:45:12;;;;;;;2.70;1.80;;;4.90;99.90;;;;;;5011092;28;20656;-45
2024/01/08 12:47:41;;;;;;;2.90;1.75;;;4.90;99.90;;;;;;5014184;28;20225;-44
2024/01/08 12:50:10;;;;;;;3.22;1.80;;;4.90;99.90;;;;;;5015630;28;20218;-44
2024/01/08 12:52:38;;;;;;;2.92;1.70;;;4.90;99.90;;;;;;5015080;28;20283;-46
2024/01/08 12:55:08;;;;;;;3.10;2.10;;;4.90;99.90;;;;;;5014249;28;20224;-47
2024/01/08 12:57:36;;;;;;;3.13;2.25;;;4.90;99.90;;;;;;5013099;28;20226;-46
2024/01/08 13:00:05;;;;;;;3.03;2.08;;;4.90;99.90;;;;;;5012124;28;20248;-44
2024/01/08 13:02:33;;;;;;;2.78;2.08;;;4.90;99.90;;;;;;5007773;28;20226;-45
2024/01/08 13:05:04;;;;;;;3.10;2.80;;;4.90;99.90;;;;;;5014628;28;20754;-47
2024/01/08 13:07:33;;;;;;;2.00;1.77;;;4.90;99.40;;;;;;5010820;28;20229;-45
2024/01/08 13:10:05;;;;;;;4.32;2.17;;;4.90;99.60;;;;;;5017071;28;20221;-46